Time;durP1;ratioP1;P1;durP2;ratioP2;P2;SDS_P1;SDS_P2;PMS_P1;PMS_P2;Temp;Humidity;BMP_temperature;BMP_pressure;BME280_temperature;BME280_humidity;BME280_pressure;Samples;Min_cycle;Max_cycle;Signal;HPM_P1;HPM_P2
2021/11/18 00:00:41;;;;;;;17.58;15.65;;;;;;;;;;5033066;28;20036;-63
2021/11/18 00:03:09;;;;;;;22.58;17.80;;;;;;;;;;5033670;28;20037;-62
2021/11/18 00:05:36;;;;;;;19.35;15.15;;;;;;;;;;5033068;28;20033;-61
2021/11/18 00:08:03;;;;;;;23.25;15.70;;;;;;;;;;5033269;28;20041;-62
2021/11/18 00:10:32;;;;;;;22.42;18.90;;;;;;;;;;5033142;28;20030;-63
2021/11/18 00:12:59;;;;;;;19.35;16.50;;;;;;;;;;5015410;28;20466;-63
2021/11/18 00:15:27;;;;;;;20.67;16.73;;;;;;;;;;5033582;28;20029;-62
2021/11/18 00:18:01;;;;;;;22.70;17.90;;;;;;;;;;5031882;28;20057;-62
2021/11/18 00:20:30;;;;;;;22.30;17.38;;;;;;;;;;5033043;28;20033;-68
2021/11/18 00:22:57;;;;;;;20.33;16.88;;;;;;;;;;5033230;28;20109;-62
2021/11/18 00:25:25;;;;;;;24.25;19.27;;;;;;;;;;5031972;28;20057;-62
2021/11/18 00:27:52;;;;;;;20.15;17.83;;;;;;;;;;5033311;28;20042;-63
2021/11/18 00:30:19;;;;;;;22.75;18.50;;;;;;;;;;5032384;28;20041;-63
2021/11/18 00:32:46;;;;;;;24.35;20.35;;;;;;;;;;5033073;28;20037;-63
2021/11/18 00:35:16;;;;;;;29.58;21.92;;;;;;;;;;5032765;28;20029;-63
2021/11/18 00:37:46;;;;;;;29.95;22.77;;;;;;;;;;5031538;28;20033;-63
2021/11/18 00:40:14;;;;;;;25.92;22.90;;;;;;;;;;5033156;28;20385;-62
2021/11/18 00:42:41;;;;;;;28.23;23.75;;;;;;;;;;5032300;28;20037;-62
2021/11/18 00:45:10;;;;;;;27.98;22.35;;;;;;;;;;5033021;28;20033;-62
2021/11/18 00:47:37;;;;;;;35.45;26.30;;;;;;;;;;5032310;28;20041;-62
2021/11/18 00:50:06;;;;;;;33.08;26.45;;;;;;;;;;5033057;28;20037;-63
2021/11/18 00:52:32;;;;;;;36.65;28.58;;;;;;;;;;5031489;28;20060;-62
2021/11/18 00:54:59;;;;;;;35.17;27.75;;;;;;;;;;5031431;28;20045;-62
2021/11/18 00:57:26;;;;;;;32.17;27.00;;;;;;;;;;5031145;28;20049;-63
2021/11/18 00:59:53;;;;;;;30.85;26.10;;;;;;;;;;5014995;28;20046;-62
2021/11/18 01:02:21;;;;;;;28.10;25.10;;;;;;;;;;5031077;28;20971;-63
2021/11/18 01:04:48;;;;;;;28.42;23.65;;;;;;;;;;5031786;28;20029;-62
2021/11/18 01:07:16;;;;;;;28.42;25.30;;;;;;;;;;5031569;28;20041;-62
2021/11/18 01:09:43;;;;;;;26.90;23.75;;;;;;;;;;5031062;28;20389;-62
2021/11/18 01:12:11;;;;;;;27.23;23.67;;;;;;;;;;5032336;28;20037;-62
2021/11/18 01:14:38;;;;;;;27.55;22.33;;;;;;;;;;5014735;28;20041;-62
2021/11/18 01:17:06;;;;;;;34.10;21.00;;;;;;;;;;5030972;28;20057;-62
2021/11/18 01:19:34;;;;;;;24.00;18.83;;;;;;;;;;5030810;28;20033;-62
2021/11/18 01:22:02;;;;;;;20.83;17.40;;;;;;;;;;5031539;28;20034;-62
2021/11/18 01:24:33;;;;;;;30.02;18.38;;;;;;;;;;5031103;28;20402;-64
2021/11/18 01:27:14;;;;;;;26.17;20.20;;;;;;;;;;5031066;28;20056;-61
2021/11/18 01:29:41;;;;;;;29.05;21.83;;;;;;;;;;5030940;28;20330;-62
2021/11/18 01:32:08;;;;;;;37.33;21.75;;;;;;;;;;5014688;28;20037;-61
2021/11/18 01:34:39;;;;;;;24.80;22.10;;;;;;;;;;5030992;28;20030;-62
2021/11/18 01:37:06;;;;;;;26.52;23.50;;;;;;;;;;5031207;28;20041;-62
2021/11/18 01:39:34;;;;;;;23.45;20.95;;;;;;;;;;5030942;28;20362;-62
2021/11/18 01:42:01;;;;;;;24.38;21.85;;;;;;;;;;5032286;28;20038;-62
2021/11/18 01:44:33;;;;;;;26.17;20.42;;;;;;;;;;5018193;28;20052;-62
2021/11/18 01:47:05;;;;;;;22.05;19.65;;;;;;;;;;5035340;28;20385;-62
2021/11/18 01:49:32;;;;;;;24.15;21.00;;;;;;;;;;5035195;28;20041;-62
2021/11/18 01:52:00;;;;;;;22.60;20.20;;;;;;;;;;5018101;28;20040;-62
2021/11/18 01:54:30;;;;;;;26.52;22.58;;;;;;;;;;5034794;28;20033;-62
2021/11/18 01:56:57;;;;;;;25.65;21.55;;;;;;;;;;5034451;28;20462;-62
2021/11/18 01:59:33;;;;;;;24.63;22.02;;;;;;;;;;5034868;28;20108;-62
2021/11/18 02:02:21;;;;;;;23.73;20.52;;;;;;;;;;5035411;28;20076;-62
2021/11/18 02:05:25;;;;;;;23.15;20.55;;;;;;;;;;5035778;28;20041;-62
2021/11/18 02:07:57;;;;;;;24.05;21.17;;;;;;;;;;5034462;28;20385;-62
2021/11/18 02:10:37;;;;;;;27.88;21.38;;;;;;;;;;5034667;28;20037;-63
2021/11/18 02:13:06;;;;;;;22.38;18.65;;;;;;;;;;5034143;28;20045;-63
2021/11/18 02:15:35;;;;;;;21.13;18.10;;;;;;;;;;5018476;28;20056;-62
2021/11/18 02:18:04;;;;;;;23.35;17.92;;;;;;;;;;5034033;28;20513;-62
2021/11/18 02:20:35;;;;;;;22.60;19.48;;;;;;;;;;5034824;28;20041;-63
2021/11/18 02:23:10;;;;;;;21.27;18.83;;;;;;;;;;5034347;28;20389;-62
2021/11/18 02:25:40;;;;;;;23.98;20.05;;;;;;;;;;5034208;28;20037;-63
2021/11/18 02:28:09;;;;;;;21.80;19.45;;;;;;;;;;5034276;28;20370;-63
2021/11/18 02:30:38;;;;;;;20.55;18.42;;;;;;;;;;5018032;28;20473;-62
2021/11/18 02:33:06;;;;;;;21.23;18.83;;;;;;;;;;5034234;28;20029;-62
2021/11/18 02:35:34;;;;;;;21.67;19.15;;;;;;;;;;5034352;28;20048;-62
2021/11/18 02:38:01;;;;;;;21.88;19.58;;;;;;;;;;5033684;28;20029;-62
2021/11/18 02:40:28;;;;;;;21.42;19.15;;;;;;;;;;5034183;28;20037;-62
2021/11/18 02:42:56;;;;;;;20.42;18.25;;;;;;;;;;5033581;28;20478;-62
2021/11/18 02:45:28;;;;;;;17.92;16.02;;;;;;;;;;5033862;28;20490;-62
2021/11/18 02:47:55;;;;;;;14.32;12.73;;;;;;;;;;5034954;28;20029;-62
2021/11/18 02:50:29;;;;;;;15.57;14.00;;;;;;;;;;5033565;28;20466;-62
2021/11/18 02:52:56;;;;;;;17.73;15.82;;;;;;;;;;5032691;28;20470;-62
2021/11/18 02:55:26;;;;;;;17.48;14.63;;;;;;;;;;5032864;28;20056;-62
2021/11/18 02:57:52;;;;;;;15.75;14.07;;;;;;;;;;5033633;28;20033;-62
2021/11/18 03:00:22;;;;;;;19.75;17.52;;;;;;;;;;5034234;28;20056;-62
2021/11/18 03:02:49;;;;;;;21.27;18.75;;;;;;;;;;5033775;28;20037;-62
2021/11/18 03:05:18;;;;;;;23.83;20.90;;;;;;;;;;5034313;28;20041;-62
2021/11/18 03:07:47;;;;;;;24.35;20.73;;;;;;;;;;5033800;28;20041;-62
2021/11/18 03:10:15;;;;;;;28.67;22.05;;;;;;;;;;5033104;28;20048;-62
2021/11/18 03:12:42;;;;;;;24.73;21.20;;;;;;;;;;5033116;28;20045;-62
2021/11/18 03:15:11;;;;;;;20.45;17.85;;;;;;;;;;5033263;28;20040;-62
2021/11/18 03:17:39;;;;;;;17.48;15.57;;;;;;;;;;5033548;28;20045;-62
2021/11/18 03:20:19;;;;;;;20.33;16.77;;;;;;;;;;5033221;28;20516;-62
2021/11/18 03:22:46;;;;;;;18.50;16.50;;;;;;;;;;5034081;28;20068;-63
2021/11/18 03:25:15;;;;;;;18.17;15.50;;;;;;;;;;5034503;28;20044;-63
2021/11/18 03:27:45;;;;;;;17.23;14.52;;;;;;;;;;5033170;28;20043;-62
2021/11/18 03:30:14;;;;;;;13.85;12.38;;;;;;;;;;5033073;28;20042;-63
2021/11/18 03:32:43;;;;;;;13.13;11.73;;;;;;;;;;5016343;28;20488;-63
2021/11/18 03:35:10;;;;;;;13.43;11.82;;;;;;;;;;5033276;28;20040;-62
2021/11/18 03:37:37;;;;;;;15.10;12.18;;;;;;;;;;5032844;28;20144;-62
2021/11/18 03:40:04;;;;;;;17.75;14.77;;;;;;;;;;5033056;28;20064;-62
2021/11/18 03:42:31;;;;;;;22.52;19.20;;;;;;;;;;5032519;28;20045;-62
2021/11/18 03:44:59;;;;;;;23.42;19.98;;;;;;;;;;5032658;28;20034;-64
2021/11/18 03:47:26;;;;;;;23.55;20.05;;;;;;;;;;5016011;28;20038;-62
2021/11/18 03:49:53;;;;;;;23.65;19.67;;;;;;;;;;5032915;28;20037;-62
2021/11/18 03:52:20;;;;;;;22.70;19.65;;;;;;;;;;5033786;28;20036;-62
2021/11/18 03:54:49;;;;;;;19.50;16.60;;;;;;;;;;5000260;28;20034;-63
2021/11/18 03:57:18;;;;;;;24.05;21.55;;;;;;;;;;5016097;28;20283;-63
2021/11/18 03:59:54;;;;;;;24.73;20.67;;;;;;;;;;5032498;28;20040;-62
2021/11/18 04:02:21;;;;;;;21.70;19.38;;;;;;;;;;5032518;28;20088;-62
2021/11/18 04:04:51;;;;;;;22.30;19.90;;;;;;;;;;5015452;28;20045;-62
2021/11/18 04:07:19;;;;;;;26.27;19.00;;;;;;;;;;5032271;28;20386;-63
2021/11/18 04:09:49;;;;;;;20.70;18.60;;;;;;;;;;5032133;28;20026;-63
2021/11/18 04:12:16;;;;;;;20.65;18.55;;;;;;;;;;5032064;28;20037;-63
2021/11/18 04:14:44;;;;;;;21.10;18.70;;;;;;;;;;5015665;28;20056;-62
2021/11/18 04:17:12;;;;;;;20.85;18.65;;;;;;;;;;5033687;28;20046;-63
2021/11/18 04:19:40;;;;;;;19.38;17.27;;;;;;;;;;5031867;28;20052;-63
2021/11/18 04:22:07;;;;;;;20.65;17.65;;;;;;;;;;5032126;28;20044;-63
2021/11/18 04:24:39;;;;;;;20.15;17.90;;;;;;;;;;5031778;28;20056;-64
2021/11/18 04:27:06;;;;;;;17.85;15.95;;;;;;;;;;5015585;28;20034;-61
2021/11/18 04:29:33;;;;;;;19.73;17.27;;;;;;;;;;5031766;28;20033;-62
2021/11/18 04:32:20;;;;;;;16.77;14.88;;;;;;;;;;5031851;28;20092;-62
2021/11/18 04:34:51;;;;;;;20.15;15.75;;;;;;;;;;5031843;28;20033;-63
2021/11/18 04:37:21;;;;;;;14.45;12.40;;;;;;;;;;5031993;28;20382;-62
2021/11/18 04:39:48;;;;;;;12.60;11.27;;;;;;;;;;5015444;28;20040;-62
2021/11/18 04:42:16;;;;;;;12.07;10.88;;;;;;;;;;5015003;28;20060;-62
2021/11/18 04:44:52;;;;;;;11.32;10.07;;;;;;;;;;5031807;28;20033;-62
2021/11/18 04:47:19;;;;;;;11.57;10.38;;;;;;;;;;5031365;28;20037;-64
2021/11/18 04:49:47;;;;;;;11.00;9.65;;;;;;;;;;5031663;28;20029;-64
2021/11/18 04:52:15;;;;;;;12.27;10.38;;;;;;;;;;5031656;28;20041;-62
2021/11/18 04:54:43;;;;;;;14.20;12.57;;;;;;;;;;5031711;28;20029;-62
2021/11/18 04:57:10;;;;;;;12.88;11.20;;;;;;;;;;5032474;28;20078;-62
2021/11/18 04:59:42;;;;;;;12.32;11.02;;;;;;;;;;5015973;28;20037;-62
2021/11/18 05:02:09;;;;;;;12.73;11.43;;;;;;;;;;5030854;28;20038;-62
2021/11/18 05:04:36;;;;;;;11.50;10.15;;;;;;;;;;5031728;28;20036;-62
2021/11/18 05:07:04;;;;;;;11.07;9.88;;;;;;;;;;5031448;28;20390;-62
2021/11/18 05:09:31;;;;;;;16.80;13.48;;;;;;;;;;5031134;28;20378;-62
2021/11/18 05:11:59;;;;;;;22.05;15.57;;;;;;;;;;5030992;28;20044;-63
2021/11/18 05:14:27;;;;;;;22.13;19.08;;;;;;;;;;5031267;28;20029;-63
2021/11/18 05:16:55;;;;;;;21.08;17.92;;;;;;;;;;5014830;28;20501;-61
2021/11/18 05:19:25;;;;;;;21.38;18.27;;;;;;;;;;4998210;28;20064;-62
2021/11/18 05:21:53;;;;;;;21.35;18.27;;;;;;;;;;5014776;28;20045;-62
2021/11/18 05:24:20;;;;;;;20.30;17.95;;;;;;;;;;5030968;28;20042;-62
2021/11/18 05:26:47;;;;;;;20.33;17.98;;;;;;;;;;5014842;28;20044;-62
2021/11/18 05:29:14;;;;;;;20.40;18.02;;;;;;;;;;5031056;28;20033;-63
2021/11/18 05:31:41;;;;;;;21.10;17.85;;;;;;;;;;5032402;28;20036;-63
2021/11/18 05:34:18;;;;;;;23.75;19.38;;;;;;;;;;5014839;28;20037;-63
2021/11/18 05:36:45;;;;;;;20.38;17.90;;;;;;;;;;5031504;28;20033;-63
2021/11/18 05:39:12;;;;;;;22.50;19.30;;;;;;;;;;5031780;28;20049;-64
2021/11/18 05:41:48;;;;;;;23.20;19.33;;;;;;;;;;5030849;28;20033;-62
2021/11/18 05:44:15;;;;;;;24.35;19.83;;;;;;;;;;5031594;28;20044;-62
2021/11/18 05:46:42;;;;;;;23.30;19.88;;;;;;;;;;5014526;28;20034;-62
2021/11/18 05:49:09;;;;;;;23.15;20.30;;;;;;;;;;5032394;28;20044;-62
2021/11/18 05:51:36;;;;;;;23.60;20.83;;;;;;;;;;5014582;28;20036;-62
2021/11/18 05:54:08;;;;;;;23.30;19.73;;;;;;;;;;5014175;28;20056;-62
2021/11/18 05:56:35;;;;;;;22.10;18.88;;;;;;;;;;5030512;28;20021;-63
2021/11/18 05:59:03;;;;;;;20.88;17.70;;;;;;;;;;5031006;28;20038;-62
2021/11/18 06:01:30;;;;;;;20.45;18.23;;;;;;;;;;5030362;28;20038;-62
2021/11/18 06:03:58;;;;;;;21.05;18.55;;;;;;;;;;5030693;28;20029;-62
2021/11/18 06:06:48;;;;;;;;;;;;;;;;;;5031720;28;20060;-62
2021/11/18 06:09:16;;;;;;;18.70;16.05;;;;;;;;;;5031918;28;19913;-62
2021/11/18 06:11:43;;;;;;;18.63;15.85;;;;;;;;;;5031326;28;20393;-62
2021/11/18 06:14:15;;;;;;;19.65;17.23;;;;;;;;;;5029878;28;20065;-63
2021/11/18 06:16:43;;;;;;;20.30;17.50;;;;;;;;;;5030148;28;20041;-63
2021/11/18 06:19:10;;;;;;;19.00;16.77;;;;;;;;;;5030672;28;20389;-63
2021/11/18 06:21:40;;;;;;;19.38;16.75;;;;;;;;;;5031481;28;20470;-62
2021/11/18 06:24:07;;;;;;;20.75;17.33;;;;;;;;;;5030343;28;20038;-62
2021/11/18 06:26:40;;;;;;;21.67;17.80;;;;;;;;;;5040895;28;20029;-62
2021/11/18 06:29:09;;;;;;;21.88;18.73;;;;;;;;;;5051692;28;20370;-62
2021/11/18 06:31:36;;;;;;;21.00;17.48;;;;;;;;;;5054029;28;20505;-63
2021/11/18 06:34:03;;;;;;;20.00;17.30;;;;;;;;;;5053623;28;20033;-62
2021/11/18 06:36:29;;;;;;;20.30;17.55;;;;;;;;;;5054147;28;20492;-62
2021/11/18 06:38:56;;;;;;;21.33;18.02;;;;;;;;;;5043033;28;20033;-62
2021/11/18 06:41:29;;;;;;;20.02;17.00;;;;;;;;;;5046823;28;20040;-67
2021/11/18 06:43:57;;;;;;;23.92;18.00;;;;;;;;;;5039996;28;20056;-63
2021/11/18 06:46:24;;;;;;;22.58;18.85;;;;;;;;;;5041645;28;20037;-63
2021/11/18 06:48:52;;;;;;;20.67;17.67;;;;;;;;;;5042350;28;20052;-62
2021/11/18 06:51:21;;;;;;;19.95;16.85;;;;;;;;;;5042862;28;20033;-62
2021/11/18 06:53:50;;;;;;;19.50;17.35;;;;;;;;;;5042554;28;20402;-62
2021/11/18 06:56:22;;;;;;;22.00;17.65;;;;;;;;;;5043426;28;20025;-62
2021/11/18 06:58:50;;;;;;;20.63;17.63;;;;;;;;;;5039428;28;20366;-62
2021/11/18 07:01:18;;;;;;;21.40;17.20;;;;;;;;;;5044266;28;20044;-61
2021/11/18 07:03:45;;;;;;;22.20;17.05;;;;;;;;;;5043814;28;20037;-62
2021/11/18 07:06:14;;;;;;;19.30;17.08;;;;;;;;;;5039579;28;20047;-63
2021/11/18 07:08:43;;;;;;;18.42;15.80;;;;;;;;;;5047017;28;20033;-62
2021/11/18 07:11:11;;;;;;;17.63;14.80;;;;;;;;;;5040131;28;20045;-63
2021/11/18 07:13:39;;;;;;;17.85;14.65;;;;;;;;;;5042842;28;20571;-62
2021/11/18 07:16:08;;;;;;;17.95;14.77;;;;;;;;;;5033079;28;20061;-63
2021/11/18 07:18:35;;;;;;;16.35;13.95;;;;;;;;;;5043407;28;20034;-62
2021/11/18 07:21:03;;;;;;;17.13;14.85;;;;;;;;;;5033846;28;20052;-63
2021/11/18 07:23:32;;;;;;;16.65;14.50;;;;;;;;;;5042621;28;20037;-63
2021/11/18 07:26:00;;;;;;;16.55;14.75;;;;;;;;;;5043260;28;20025;-63
2021/11/18 07:28:30;;;;;;;17.13;14.93;;;;;;;;;;5037484;28;20476;-63
2021/11/18 07:31:00;;;;;;;16.55;14.63;;;;;;;;;;5041436;28;20028;-66
2021/11/18 07:33:29;;;;;;;17.23;15.25;;;;;;;;;;5042835;28;20033;-63
2021/11/18 07:35:56;;;;;;;17.27;14.85;;;;;;;;;;5043973;28;20044;-64
2021/11/18 07:38:25;;;;;;;16.70;13.73;;;;;;;;;;5046306;28;20048;-62
2021/11/18 07:40:51;;;;;;;13.73;12.27;;;;;;;;;;5043104;28;20052;-62
2021/11/18 07:43:28;;;;;;;16.40;12.48;;;;;;;;;;5040010;28;20036;-63
2021/11/18 07:46:00;;;;;;;13.60;12.07;;;;;;;;;;5043480;28;20576;-63
2021/11/18 07:48:47;;;;;;;14.15;12.20;;;;;;;;;;5043758;28;20034;-63
2021/11/18 07:51:18;;;;;;;14.50;12.90;;;;;;;;;;5041325;28;20040;-62
2021/11/18 07:53:47;;;;;;;15.25;12.35;;;;;;;;;;5042657;28;20037;-62
2021/11/18 07:56:15;;;;;;;14.85;12.18;;;;;;;;;;5041867;28;20060;-62
2021/11/18 07:58:42;;;;;;;14.38;12.55;;;;;;;;;;5042939;28;20033;-62
2021/11/18 08:01:09;;;;;;;15.70;12.05;;;;;;;;;;5032232;28;20052;-63
2021/11/18 08:03:37;;;;;;;13.50;11.95;;;;;;;;;;5040016;28;20044;-64
2021/11/18 08:06:17;;;;;;;14.35;10.70;;;;;;;;;;5041505;28;20393;-62
2021/11/18 08:08:49;;;;;;;14.07;11.32;;;;;;;;;;5037266;28;20034;-63
2021/11/18 08:11:22;;;;;;;14.75;10.90;;;;;;;;;;5040815;28;20029;-62
2021/11/18 08:13:49;;;;;;;11.00;9.65;;;;;;;;;;5040672;28;20049;-63
2021/11/18 08:16:16;;;;;;;10.02;8.57;;;;;;;;;;5041767;28;20045;-62
2021/11/18 08:18:48;;;;;;;10.60;9.50;;;;;;;;;;5031771;28;20498;-62
2021/11/18 08:21:15;;;;;;;11.18;10.00;;;;;;;;;;5031702;28;20039;-67
2021/11/18 08:23:42;;;;;;;11.40;10.10;;;;;;;;;;5015418;28;20041;-62
2021/11/18 08:26:11;;;;;;;11.85;10.10;;;;;;;;;;5032417;28;20033;-61
2021/11/18 08:28:38;;;;;;;13.25;11.45;;;;;;;;;;5031987;28;20496;-65
2021/11/18 08:31:05;;;;;;;12.95;10.98;;;;;;;;;;5031966;28;20473;-62
2021/11/18 08:33:40;;;;;;;10.25;8.80;;;;;;;;;;5031809;28;20402;-60
2021/11/18 08:36:07;;;;;;;11.40;9.90;;;;;;;;;;5048030;28;20040;-61
2021/11/18 08:38:35;;;;;;;10.45;8.80;;;;;;;;;;5048412;28;20040;-62
2021/11/18 08:41:05;;;;;;;11.55;9.75;;;;;;;;;;5046301;28;20064;-65
2021/11/18 08:43:35;;;;;;;11.45;8.75;;;;;;;;;;5044823;28;20036;-60
2021/11/18 08:46:04;;;;;;;11.10;9.48;;;;;;;;;;5040448;28;20029;-60
2021/11/18 08:48:32;;;;;;;11.32;9.13;;;;;;;;;;5037623;28;20472;-59
2021/11/18 08:50:59;;;;;;;12.23;9.73;;;;;;;;;;5040048;28;20037;-59
2021/11/18 08:53:28;;;;;;;10.38;9.25;;;;;;;;;;5041149;28;20471;-61
2021/11/18 08:55:57;;;;;;;10.05;8.95;;;;;;;;;;5039600;28;20029;-57
2021/11/18 08:58:25;;;;;;;10.63;9.52;;;;;;;;;;5036493;28;20121;-54
2021/11/18 09:01:22;;;;;;;10.70;9.55;;;;;;;;;;5040458;28;20048;-54
2021/11/18 09:03:50;;;;;;;10.82;9.73;;;;;;;;;;5040912;28;20037;-57
2021/11/18 09:06:22;;;;;;;15.05;12.23;;;;;;;;;;5036158;28;20477;-60
2021/11/18 09:08:54;;;;;;;11.95;10.00;;;;;;;;;;5033799;28;20030;-60
2021/11/18 09:11:21;;;;;;;12.23;10.80;;;;;;;;;;5040751;28;20512;-60
2021/11/18 09:13:53;;;;;;;11.00;9.68;;;;;;;;;;5036582;28;20044;-60
2021/11/18 09:16:21;;;;;;;11.60;10.40;;;;;;;;;;5039074;28;20057;-60
2021/11/18 09:19:05;;;;;;;13.23;11.93;;;;;;;;;;5038773;28;20505;-61
2021/11/18 09:21:33;;;;;;;13.20;11.88;;;;;;;;;;5035360;28;20461;-64
2021/11/18 09:24:05;;;;;;;12.27;10.98;;;;;;;;;;5038920;28;20389;-60
2021/11/18 09:26:34;;;;;;;11.50;10.15;;;;;;;;;;5039618;28;20369;-60
2021/11/18 09:29:01;;;;;;;12.20;10.88;;;;;;;;;;5041628;28;20033;-61
2021/11/18 09:31:59;;;;;;;13.68;12.20;;;;;;;;;;5050841;28;20408;-60
2021/11/18 09:34:26;;;;;;;12.60;11.27;;;;;;;;;;5049997;28;20412;-60
2021/11/18 09:36:54;;;;;;;14.15;12.70;;;;;;;;;;5052090;28;20049;-60
2021/11/18 09:39:24;;;;;;;12.95;11.52;;;;;;;;;;5050333;28;20045;-61
2021/11/18 09:42:02;;;;;;;13.27;11.85;;;;;;;;;;5050060;28;20045;-60
2021/11/18 09:44:50;;;;;;;16.17;12.55;;;;;;;;;;5050786;28;20048;-60
2021/11/18 09:47:58;;;;;;;15.93;12.48;;;;;;;;;;5050855;28;20070;-59
2021/11/18 09:50:42;;;;;;;14.07;12.20;;;;;;;;;;5049735;28;20048;-59
2021/11/18 09:53:33;;;;;;;15.55;13.25;;;;;;;;;;5049533;28;20054;-60
2021/11/18 09:56:23;;;;;;;15.55;13.57;;;;;;;;;;5050387;28;20044;-60
2021/11/18 09:58:56;;;;;;;14.32;12.75;;;;;;;;;;5046779;28;20056;-60
2021/11/18 10:01:34;;;;;;;14.73;12.48;;;;;;;;;;5030722;28;20049;-61
2021/11/18 10:04:20;;;;;;;23.58;13.30;;;;;;;;;;5045455;28;20053;-60
2021/11/18 10:06:48;;;;;;;15.00;13.43;;;;;;;;;;5042247;28;20048;-60
2021/11/18 10:09:17;;;;;;;14.10;12.60;;;;;;;;;;5034411;28;20060;-59
2021/11/18 10:11:50;;;;;;;13.52;11.52;;;;;;;;;;5017382;28;20036;-60
2021/11/18 10:14:21;;;;;;;14.27;12.57;;;;;;;;;;5034793;28;20029;-60
2021/11/18 10:16:57;;;;;;;13.20;11.82;;;;;;;;;;5034113;28;20041;-60
2021/11/18 10:19:31;;;;;;;14.57;11.25;;;;;;;;;;5034341;28;20056;-60
2021/11/18 10:21:59;;;;;;;14.52;11.70;;;;;;;;;;5035558;28;20057;-60
2021/11/18 10:24:30;;;;;;;15.10;12.80;;;;;;;;;;5035349;28;20057;-59
2021/11/18 10:26:58;;;;;;;16.48;14.73;;;;;;;;;;5037469;28;20059;-60
2021/11/18 10:29:28;;;;;;;19.23;15.50;;;;;;;;;;5048270;28;20465;-60
2021/11/18 10:32:22;;;;;;;17.55;14.75;;;;;;;;;;5052773;28;20045;-60
2021/11/18 10:34:58;;;;;;;17.05;13.98;;;;;;;;;;5052975;28;20036;-60
2021/11/18 10:37:36;;;;;;;17.50;13.80;;;;;;;;;;5052544;28;20401;-60
2021/11/18 10:40:06;;;;;;;21.35;13.82;;;;;;;;;;5054756;28;20461;-60
2021/11/18 10:42:38;;;;;;;25.35;16.20;;;;;;;;;;5053722;28;20040;-60
2021/11/18 10:45:10;;;;;;;21.60;15.27;;;;;;;;;;5055035;28;20473;-60
2021/11/18 10:47:42;;;;;;;16.73;14.10;;;;;;;;;;5055148;28;20033;-59
2021/11/18 10:50:09;;;;;;;17.50;14.65;;;;;;;;;;5054661;28;20056;-60
2021/11/18 10:52:41;;;;;;;17.35;14.63;;;;;;;;;;5052922;28;20056;-59
2021/11/18 10:55:13;;;;;;;18.52;15.43;;;;;;;;;;5051074;28;20021;-60
2021/11/18 10:57:53;;;;;;;16.75;15.02;;;;;;;;;;5042836;28;20037;-59
2021/11/18 11:00:23;;;;;;;17.52;14.70;;;;;;;;;;5043207;28;20097;-60
2021/11/18 11:02:50;;;;;;;19.50;16.88;;;;;;;;;;5044076;28;20044;-59
2021/11/18 11:05:23;;;;;;;18.15;16.23;;;;;;;;;;5041494;28;20143;-59
2021/11/18 11:07:51;;;;;;;18.42;16.45;;;;;;;;;;5037419;28;20617;-61
2021/11/18 11:10:23;;;;;;;19.88;16.98;;;;;;;;;;5035893;28;20041;-61
2021/11/18 11:13:04;;;;;;;18.38;16.35;;;;;;;;;;5034867;28;20022;-59
2021/11/18 11:15:49;;;;;;;20.27;17.35;;;;;;;;;;5042096;28;20021;-60
2021/11/18 11:18:16;;;;;;;18.83;16.25;;;;;;;;;;5043449;28;20060;-61
2021/11/18 11:20:47;;;;;;;17.95;15.73;;;;;;;;;;5042953;28;20139;-60
2021/11/18 11:23:20;;;;;;;21.33;17.60;;;;;;;;;;5043762;28;20029;-60
2021/11/18 11:26:05;;;;;;;19.52;17.42;;;;;;;;;;5044528;28;20359;-60
2021/11/18 11:28:33;;;;;;;16.70;14.73;;;;;;;;;;5043554;28;20026;-60
2021/11/18 11:31:18;;;;;;;16.90;15.15;;;;;;;;;;5042037;28;20033;-60
2021/11/18 11:34:04;;;;;;;18.08;14.20;;;;;;;;;;5043605;28;20484;-60
2021/11/18 11:36:44;;;;;;;16.38;14.57;;;;;;;;;;5042020;28;20033;-60
2021/11/18 11:39:43;;;;;;;20.45;15.32;;;;;;;;;;5044343;28;20032;-60
2021/11/18 11:42:10;;;;;;;15.70;14.07;;;;;;;;;;5041025;28;20049;-61
2021/11/18 11:44:43;;;;;;;16.92;15.10;;;;;;;;;;5047046;28;20037;-60
2021/11/18 11:47:13;;;;;;;17.70;14.35;;;;;;;;;;5042678;28;20033;-60
2021/11/18 11:49:56;;;;;;;15.93;14.23;;;;;;;;;;5041286;28;20405;-63
2021/11/18 11:52:29;;;;;;;16.67;14.77;;;;;;;;;;5040852;28;20025;-58
2021/11/18 11:54:55;;;;;;;18.02;15.25;;;;;;;;;;5034267;28;20022;-59
2021/11/18 11:57:22;;;;;;;16.88;15.13;;;;;;;;;;5032468;28;20672;-59
2021/11/18 11:59:57;;;;;;;24.85;19.00;;;;;;;;;;5034701;28;20036;-60
2021/11/18 12:02:35;;;;;;;20.17;17.05;;;;;;;;;;5036049;28;20056;-59
2021/11/18 12:05:06;;;;;;;20.90;18.75;;;;;;;;;;5037759;28;20022;-59
2021/11/18 12:07:39;;;;;;;20.95;17.85;;;;;;;;;;5032110;28;20029;-59
2021/11/18 12:10:06;;;;;;;20.83;17.88;;;;;;;;;;5032712;28;20437;-58
2021/11/18 12:12:39;;;;;;;23.25;18.90;;;;;;;;;;5037003;28;20367;-62
2021/11/18 12:15:12;;;;;;;21.38;19.08;;;;;;;;;;5032906;28;20044;-60
2021/11/18 12:17:41;;;;;;;21.45;19.10;;;;;;;;;;5042316;28;20512;-60
2021/11/18 12:20:16;;;;;;;19.30;17.20;;;;;;;;;;5042513;28;20499;-60
2021/11/18 12:22:43;;;;;;;22.60;19.00;;;;;;;;;;5034897;28;20037;-60
2021/11/18 12:25:15;;;;;;;22.83;19.67;;;;;;;;;;5032953;28;20025;-60
2021/11/18 12:27:57;;;;;;;21.25;19.08;;;;;;;;;;5037390;28;20402;-73
2021/11/18 12:30:24;;;;;;;21.40;18.95;;;;;;;;;;5034500;28;20032;-62
2021/11/18 12:32:56;;;;;;;23.38;20.33;;;;;;;;;;5045231;28;20048;-61
2021/11/18 12:35:30;;;;;;;22.25;19.92;;;;;;;;;;5043815;28;20035;-63
2021/11/18 12:38:23;;;;;;;21.85;19.52;;;;;;;;;;5035682;28;20041;-63
2021/11/18 12:40:59;;;;;;;22.20;19.40;;;;;;;;;;5043581;28;20045;-62
2021/11/18 12:43:26;;;;;;;21.55;19.10;;;;;;;;;;5041951;28;20040;-64
2021/11/18 12:45:53;;;;;;;22.00;19.73;;;;;;;;;;5033909;28;20700;-64
2021/11/18 12:48:25;;;;;;;21.50;17.67;;;;;;;;;;5040744;28;20030;-66
2021/11/18 12:51:03;;;;;;;26.40;20.65;;;;;;;;;;5038577;28;20029;-63
2021/11/18 12:53:33;;;;;;;24.48;20.45;;;;;;;;;;5031786;28;20041;-62
2021/11/18 12:55:59;;;;;;;26.02;22.67;;;;;;;;;;5032781;28;20041;-61
2021/11/18 12:58:26;;;;;;;32.28;26.10;;;;;;;;;;5034752;28;20021;-61
2021/11/18 13:00:55;;;;;;;34.15;26.10;;;;;;;;;;5031604;28;20045;-61
2021/11/18 13:03:40;;;;;;;33.40;26.67;;;;;;;;;;5030038;28;20045;-63
2021/11/18 13:06:07;;;;;;;34.53;28.05;;;;;;;;;;5030349;28;20041;-61
2021/11/18 13:08:40;;;;;;;30.52;26.55;;;;;;;;;;5037390;28;20058;-60
2021/11/18 13:11:26;;;;;;;34.10;27.80;;;;;;;;;;5038086;28;20145;-59
2021/11/18 13:14:08;;;;;;;32.50;28.05;;;;;;;;;;5038987;28;20041;-60
2021/11/18 13:16:51;;;;;;;32.35;25.88;;;;;;;;;;5037938;28;20057;-60
2021/11/18 13:19:26;;;;;;;38.28;29.05;;;;;;;;;;5038831;28;20501;-60
2021/11/18 13:21:56;;;;;;;28.85;24.88;;;;;;;;;;5035789;28;20033;-60
2021/11/18 13:24:38;;;;;;;28.00;25.00;;;;;;;;;;5040379;28;20501;-60
2021/11/18 13:27:04;;;;;;;30.40;23.83;;;;;;;;;;5039604;28;20033;-61
2021/11/18 13:29:32;;;;;;;30.50;25.90;;;;;;;;;;5039638;28;20033;-60
2021/11/18 13:31:59;;;;;;;32.15;25.60;;;;;;;;;;5040822;28;20369;-60
2021/11/18 13:34:28;;;;;;;32.72;26.75;;;;;;;;;;5038273;28;20056;-62
2021/11/18 13:37:04;;;;;;;33.25;27.00;;;;;;;;;;5041981;28;20033;-60
2021/11/18 13:39:33;;;;;;;28.83;25.55;;;;;;;;;;5047554;28;20040;-61
2021/11/18 13:42:00;;;;;;;32.03;25.33;;;;;;;;;;5042646;28;20064;-60
2021/11/18 13:44:38;;;;;;;32.65;27.13;;;;;;;;;;5045333;28;20032;-60
2021/11/18 13:47:19;;;;;;;29.65;26.45;;;;;;;;;;5043777;28;20033;-59
2021/11/18 13:49:47;;;;;;;33.20;27.70;;;;;;;;;;5043721;28;20135;-59
2021/11/18 13:52:14;;;;;;;34.90;30.05;;;;;;;;;;5044136;28;20040;-59
2021/11/18 13:54:52;;;;;;;33.58;28.30;;;;;;;;;;5040084;28;20478;-58
2021/11/18 13:57:38;;;;;;;34.45;29.88;;;;;;;;;;5045861;28;20037;-59
2021/11/18 14:00:14;;;;;;;37.92;28.92;;;;;;;;;;5046986;28;20037;-60
2021/11/18 14:02:53;;;;;;;38.53;30.38;;;;;;;;;;5045567;28;20505;-60
2021/11/18 14:05:24;;;;;;;35.47;30.15;;;;;;;;;;5046142;28;20040;-58
2021/11/18 14:08:02;;;;;;;33.55;29.10;;;;;;;;;;5037990;28;20034;-59
2021/11/18 14:10:32;;;;;;;36.42;30.23;;;;;;;;;;5040211;28;20461;-58
2021/11/18 14:13:05;;;;;;;33.75;27.45;;;;;;;;;;5038515;28;20041;-60
2021/11/18 14:15:40;;;;;;;33.67;27.77;;;;;;;;;;5046499;28;20033;-60
2021/11/18 14:18:07;;;;;;;37.78;30.67;;;;;;;;;;5046332;28;20057;-60
2021/11/18 14:20:37;;;;;;;36.83;29.15;;;;;;;;;;5045699;28;20040;-60
2021/11/18 14:23:19;;;;;;;35.72;28.35;;;;;;;;;;5045325;28;20051;-59
2021/11/18 14:26:05;;;;;;;36.50;27.83;;;;;;;;;;5036944;28;20037;-59
2021/11/18 14:28:35;;;;;;;36.13;28.42;;;;;;;;;;5046307;28;20025;-59
2021/11/18 14:31:02;;;;;;;38.60;29.35;;;;;;;;;;5045060;28;20392;-60
2021/11/18 14:33:36;;;;;;;35.80;30.15;;;;;;;;;;5041977;28;20029;-59
2021/11/18 14:36:26;;;;;;;36.03;27.90;;;;;;;;;;5042958;28;20025;-60
2021/11/18 14:38:53;;;;;;;36.88;26.55;;;;;;;;;;5044491;28;20508;-60
2021/11/18 14:41:20;;;;;;;35.33;27.92;;;;;;;;;;5043818;28;20029;-60